createdAt,value
2017-11-15T00:01:25.836Z,99.59
2017-11-15T00:02:49.230Z,99.71
2017-11-15T00:04:20.429Z,99.89
2017-11-15T00:05:43.590Z,100.00
2017-11-15T00:07:11.157Z,100.00
2017-11-15T00:08:38.491Z,100.00
2017-11-15T00:10:09.845Z,100.00
2017-11-15T00:11:37.285Z,100.00
2017-11-15T00:13:04.576Z,100.00
2017-11-15T00:14:31.909Z,100.00
2017-11-15T00:15:55.301Z,100.00
2017-11-15T00:17:26.612Z,100.00
2017-11-15T00:18:53.993Z,100.00
2017-11-15T00:20:17.486Z,100.00
2017-11-15T00:21:48.791Z,100.00
2017-11-15T00:23:16.100Z,100.00
2017-11-15T00:24:39.380Z,99.85
2017-11-15T00:26:06.562Z,99.64
2017-11-15T00:27:37.893Z,99.55
2017-11-15T00:29:01.076Z,99.41
2017-11-15T00:30:32.320Z,99.28
2017-11-15T00:31:55.782Z,99.12
2017-11-15T00:33:23.215Z,98.95
2017-11-15T00:34:50.514Z,98.76
2017-11-15T00:36:21.910Z,98.63
2017-11-15T00:37:49.335Z,98.35
2017-11-15T00:39:16.568Z,98.31
2017-11-15T00:40:40.022Z,98.45
2017-11-15T00:42:11.068Z,98.57
2017-11-15T00:43:34.418Z,98.76
2017-11-15T00:45:01.777Z,98.88
2017-11-15T00:46:29.306Z,98.94
2017-11-15T00:48:00.589Z,99.04
2017-11-15T00:49:27.990Z,99.04
2017-11-15T00:50:55.370Z,99.01
2017-11-15T00:52:22.704Z,98.86
2017-11-15T00:53:49.985Z,98.78
2017-11-15T00:55:13.257Z,98.76
2017-11-15T00:56:44.672Z,98.86
2017-11-15T00:58:11.882Z,98.67
2017-11-15T00:59:35.332Z,98.80
2017-11-15T01:01:06.561Z,98.66
2017-11-15T01:02:33.942Z,98.64
2017-11-15T01:04:01.293Z,98.76
2017-11-15T01:05:29.689Z,98.73
2017-11-15T01:06:51.949Z,98.62
2017-11-15T01:08:19.126Z,98.39
2017-11-15T01:09:46.362Z,98.43
2017-11-15T01:11:17.640Z,98.35
2017-11-15T01:12:45.001Z,98.28
2017-11-15T01:14:12.265Z,98.05
2017-11-15T01:15:35.576Z,98.02
2017-11-15T01:17:02.964Z,97.90
2017-11-15T01:18:30.309Z,97.84
2017-11-15T01:20:01.547Z,97.70
2017-11-15T01:21:28.934Z,97.76
2017-11-15T01:22:51.908Z,97.74
2017-11-15T01:24:19.256Z,97.93
2017-11-15T01:25:50.524Z,97.89
2017-11-15T01:27:13.619Z,97.89
2017-11-15T01:28:44.890Z,97.79
2017-11-15T01:30:08.201Z,97.70
2017-11-15T01:31:39.499Z,97.61
2017-11-15T01:33:02.695Z,97.45
2017-11-15T01:34:34.043Z,97.38
2017-11-15T01:35:56.923Z,97.38
2017-11-15T01:37:28.056Z,97.22
2017-11-15T01:38:55.394Z,97.17
2017-11-15T01:40:22.473Z,97.31
2017-11-15T01:41:45.881Z,97.32
2017-11-15T01:43:16.957Z,97.26
2017-11-15T01:44:44.350Z,97.07
2017-11-15T01:46:11.689Z,96.95
2017-11-15T01:47:38.649Z,96.75
2017-11-15T01:49:02.136Z,96.71
2017-11-15T01:50:33.231Z,96.53
2017-11-15T01:52:00.572Z,96.50
2017-11-15T01:53:23.896Z,96.42
2017-11-15T01:54:55.171Z,96.43
2017-11-15T01:56:18.390Z,96.47
2017-11-15T01:57:49.512Z,96.40
2017-11-15T01:59:12.524Z,96.53
2017-11-15T02:00:39.700Z,96.72
2017-11-15T02:02:06.747Z,96.95
2017-11-15T02:03:38.144Z,96.98
2017-11-15T02:05:05.412Z,96.97
2017-11-15T02:06:28.766Z,97.02
2017-11-15T02:07:59.897Z,96.98
2017-11-15T02:09:27.200Z,97.18
2017-11-15T02:10:54.481Z,97.16
2017-11-15T02:12:17.948Z,97.00
2017-11-15T02:13:49.088Z,97.06
2017-11-15T02:15:12.174Z,97.12
2017-11-15T02:16:39.491Z,97.31
2017-11-15T02:18:10.735Z,97.25
2017-11-15T02:19:38.101Z,97.18
2017-11-15T02:21:01.411Z,97.09
2017-11-15T02:22:32.680Z,97.08
2017-11-15T02:23:59.908Z,97.08
2017-11-15T02:25:23.145Z,97.04
2017-11-15T02:26:50.377Z,96.95
2017-11-15T02:28:21.778Z,96.90
2017-11-15T02:29:45.193Z,96.82
2017-11-15T02:31:12.551Z,96.76
2017-11-15T02:32:43.952Z,96.67
2017-11-15T02:34:07.406Z,96.58
2017-11-15T02:35:34.683Z,96.58
2017-11-15T02:37:05.647Z,96.93
2017-11-15T02:38:33.169Z,97.10
2017-11-15T02:39:56.566Z,96.98
2017-11-15T02:41:24.070Z,96.95
2017-11-15T02:42:51.504Z,96.79
2017-11-15T02:44:18.805Z,96.72
2017-11-15T02:45:46.017Z,96.61
2017-11-15T02:47:17.422Z,96.52
2017-11-15T02:48:44.577Z,96.34
2017-11-15T02:50:11.829Z,96.31
2017-11-15T02:51:38.804Z,96.28
2017-11-15T02:53:06.198Z,96.20
2017-11-15T02:54:33.591Z,96.16
2017-11-15T02:55:56.826Z,96.11
2017-11-15T02:57:27.970Z,96.06
2017-11-15T02:58:51.427Z,96.07
2017-11-15T03:00:18.499Z,96.04
2017-11-15T03:01:49.786Z,95.99
2017-11-15T03:03:13.022Z,96.02
2017-11-15T03:04:40.193Z,95.97
2017-11-15T03:06:11.469Z,95.93
2017-11-15T03:07:34.843Z,95.91
2017-11-15T03:09:06.230Z,95.87
2017-11-15T03:10:29.613Z,95.88
2017-11-15T03:12:00.609Z,95.86
2017-11-15T03:13:23.947Z,95.87
2017-11-15T03:14:51.173Z,95.89
2017-11-15T03:16:22.581Z,95.84
2017-11-15T03:17:45.472Z,95.86
2017-11-15T03:19:16.697Z,95.91
2017-11-15T03:20:39.801Z,95.95
2017-11-15T03:22:10.976Z,95.97
2017-11-15T03:23:34.397Z,95.97
2017-11-15T03:25:01.747Z,95.95
2017-11-15T03:26:32.937Z,95.95
2017-11-15T03:27:56.198Z,95.98
2017-11-15T03:29:23.349Z,96.01
2017-11-15T03:30:50.768Z,96.05
2017-11-15T03:32:22.045Z,96.07
2017-11-15T03:33:45.493Z,96.09
2017-11-15T03:35:12.696Z,96.16
2017-11-15T03:36:40.236Z,96.19
2017-11-15T03:38:11.298Z,96.15
2017-11-15T03:39:38.867Z,96.17
2017-11-15T03:41:01.804Z,96.16
2017-11-15T03:42:32.972Z,96.25
2017-11-15T03:44:00.096Z,96.12
2017-11-15T03:45:23.250Z,96.08
2017-11-15T03:46:54.608Z,96.18
2017-11-15T03:48:17.936Z,96.09
2017-11-15T03:49:45.114Z,96.02
2017-11-15T03:51:12.459Z,96.03
2017-11-15T03:52:43.625Z,96.01
2017-11-15T03:54:06.802Z,95.93
2017-11-15T03:55:34.206Z,95.98
2017-11-15T03:57:05.323Z,96.15
2017-11-15T03:58:32.507Z,96.26
2017-11-15T03:59:55.756Z,96.31
2017-11-15T04:01:23.212Z,96.60
2017-11-15T04:02:54.607Z,96.82
2017-11-15T04:04:21.914Z,97.27
2017-11-15T04:05:45.373Z,97.30
2017-11-15T04:07:16.569Z,97.36
2017-11-15T04:08:43.818Z,97.45
2017-11-15T04:10:07.070Z,97.73
2017-11-15T04:11:38.294Z,97.80
2017-11-15T04:13:01.764Z,97.84
2017-11-15T04:14:28.985Z,97.88
2017-11-15T04:16:00.394Z,98.03
2017-11-15T04:17:23.783Z,98.02
2017-11-15T04:18:55.104Z,98.18
2017-11-15T04:20:18.471Z,98.24
2017-11-15T04:21:49.601Z,98.22
2017-11-15T04:23:17.008Z,98.26
2017-11-15T04:24:40.270Z,98.29
2017-11-15T04:26:07.628Z,98.44
2017-11-15T04:27:38.998Z,98.39
2017-11-15T04:29:06.415Z,98.44
2017-11-15T04:30:33.551Z,98.53
2017-11-15T04:31:56.846Z,98.65
2017-11-15T04:33:24.057Z,98.73
2017-11-15T04:34:51.399Z,98.80
2017-11-15T04:36:22.531Z,98.78
2017-11-15T04:37:49.784Z,98.77
2017-11-15T04:39:17.104Z,98.77
2017-11-15T04:40:40.334Z,98.77
2017-11-15T04:42:07.619Z,98.84
2017-11-15T04:43:34.889Z,98.73
2017-11-15T04:45:06.175Z,98.65
2017-11-15T04:46:33.548Z,98.48
2017-11-15T04:48:00.823Z,98.49
2017-11-15T04:49:28.001Z,98.51
2017-11-15T04:50:55.292Z,98.60
2017-11-15T04:52:18.461Z,98.64
2017-11-15T04:53:45.718Z,98.61
2017-11-15T04:55:12.964Z,98.65
2017-11-15T04:56:44.363Z,98.65
2017-11-15T04:58:07.521Z,98.72
2017-11-15T04:59:38.646Z,98.74
2017-11-15T05:01:06.017Z,98.77
2017-11-15T05:02:33.229Z,98.79
2017-11-15T05:03:56.525Z,98.85
2017-11-15T05:05:23.859Z,98.96
2017-11-15T05:06:51.513Z,98.88
2017-11-15T05:08:22.842Z,98.90
2017-11-15T05:09:46.084Z,98.96
2017-11-15T05:11:17.425Z,99.09
2017-11-15T05:12:44.587Z,99.23
2017-11-15T05:14:11.887Z,99.29
2017-11-15T05:15:35.094Z,99.39
2017-11-15T05:17:06.572Z,99.51
2017-11-15T05:18:30.056Z,99.48
2017-11-15T05:20:01.361Z,99.53
2017-11-15T05:21:28.611Z,99.61
2017-11-15T05:22:56.014Z,99.77
2017-11-15T05:24:19.274Z,99.80
2017-11-15T05:25:50.667Z,99.78
2017-11-15T05:27:17.947Z,99.81
2017-11-15T05:28:41.040Z,99.86
2017-11-15T05:30:08.237Z,99.81
2017-11-15T05:31:35.577Z,99.73
2017-11-15T05:33:02.987Z,99.77
2017-11-15T05:34:34.265Z,99.73
2017-11-15T05:35:57.323Z,99.65
2017-11-15T05:37:28.687Z,99.74
2017-11-15T05:38:51.774Z,99.83
2017-11-15T05:40:18.889Z,99.77
2017-11-15T05:41:50.202Z,99.83
2017-11-15T05:43:17.609Z,99.88
2017-11-15T05:44:44.646Z,99.77
2017-11-15T05:46:11.879Z,99.58
2017-11-15T05:47:35.097Z,99.43
2017-11-15T05:49:02.351Z,99.29
2017-11-15T05:50:29.840Z,99.16
2017-11-15T05:52:01.166Z,98.93
2017-11-15T05:53:28.367Z,98.75
2017-11-15T05:54:55.839Z,98.56
2017-11-15T05:56:19.115Z,98.35
2017-11-15T05:57:46.364Z,98.13
2017-11-15T05:59:13.785Z,97.97
2017-11-15T06:00:40.996Z,97.84
2017-11-15T06:02:12.244Z,97.63
2017-11-15T06:03:39.466Z,97.49
2017-11-15T06:05:02.713Z,97.23
2017-11-15T06:06:34.170Z,97.15
2017-11-15T06:07:57.305Z,96.97
2017-11-15T06:09:24.348Z,96.81
2017-11-15T06:10:55.740Z,96.83
2017-11-15T06:12:23.114Z,96.83
2017-11-15T06:13:46.581Z,96.74
2017-11-15T06:15:13.878Z,96.72
2017-11-15T06:16:45.150Z,96.61
2017-11-15T06:18:11.941Z,96.56
2017-11-15T06:19:35.335Z,96.62
2017-11-15T06:21:06.664Z,96.41
2017-11-15T06:22:30.098Z,96.36
2017-11-15T06:24:01.155Z,96.32
2017-11-15T06:25:24.521Z,96.25
2017-11-15T06:26:55.799Z,96.22
2017-11-15T06:28:19.129Z,96.21
2017-11-15T06:29:46.450Z,96.17
2017-11-15T06:31:17.681Z,96.12
2017-11-15T06:32:44.607Z,96.15
2017-11-15T06:34:07.906Z,96.08
2017-11-15T06:35:35.225Z,96.08
2017-11-15T06:37:02.577Z,96.03
2017-11-15T06:38:33.938Z,96.02
2017-11-15T06:39:57.424Z,96.04
2017-11-15T06:41:24.786Z,96.09
2017-11-15T06:42:55.792Z,96.10
2017-11-15T06:44:23.040Z,96.11
2017-11-15T06:45:50.167Z,96.12
2017-11-15T06:47:13.556Z,96.13
2017-11-15T06:48:44.681Z,96.13
2017-11-15T06:50:11.969Z,96.16
2017-11-15T06:51:35.299Z,96.19
2017-11-15T06:53:06.503Z,96.13
2017-11-15T06:54:33.802Z,96.18
2017-11-15T06:55:57.316Z,96.17
2017-11-15T06:57:28.709Z,96.16
2017-11-15T06:58:51.979Z,96.17
2017-11-15T07:00:23.328Z,96.14
2017-11-15T07:01:46.662Z,96.13
2017-11-15T07:03:13.894Z,96.10
2017-11-15T07:04:45.205Z,96.16
2017-11-15T07:06:08.359Z,96.20
2017-11-15T07:07:35.933Z,96.21
2017-11-15T07:09:03.140Z,96.28
2017-11-15T07:10:34.451Z,96.33
2017-11-15T07:12:01.836Z,96.33
2017-11-15T07:13:25.118Z,96.30
2017-11-15T07:14:56.514Z,96.33
2017-11-15T07:16:19.836Z,96.24
2017-11-15T07:17:47.225Z,96.44
2017-11-15T07:19:14.386Z,96.42
2017-11-15T07:20:41.656Z,96.48
2017-11-15T07:22:12.876Z,96.58
2017-11-15T07:23:36.229Z,96.60
2017-11-15T07:25:03.620Z,96.61
2017-11-15T07:26:30.939Z,96.63
2017-11-15T07:27:58.317Z,96.68
2017-11-15T07:29:29.461Z,96.74
2017-11-15T07:30:56.745Z,96.82
2017-11-15T07:32:20.026Z,96.84
2017-11-15T07:33:51.287Z,96.79
2017-11-15T07:35:14.684Z,96.82
2017-11-15T07:36:42.067Z,96.87
2017-11-15T07:38:13.303Z,96.94
2017-11-15T07:39:39.993Z,96.91
2017-11-15T07:41:03.211Z,97.01
2017-11-15T07:42:34.429Z,97.07
2017-11-15T07:43:57.827Z,97.12
2017-11-15T07:45:33.116Z,97.16
2017-11-15T07:46:52.037Z,97.14
2017-11-15T07:48:23.301Z,97.13
2017-11-15T07:49:46.613Z,97.14
2017-11-15T07:51:14.016Z,97.15
2017-11-15T07:52:41.264Z,97.12
2017-11-15T07:54:12.181Z,97.11
2017-11-15T07:55:35.547Z,97.08
2017-11-15T07:57:02.920Z,97.05
2017-11-15T07:58:30.363Z,97.01
2017-11-15T07:59:57.631Z,97.08
2017-11-15T08:01:24.925Z,97.15
2017-11-15T08:02:56.112Z,97.15
2017-11-15T08:04:23.402Z,97.06
2017-11-15T08:05:50.763Z,97.05
2017-11-15T08:07:14.221Z,97.10
2017-11-15T11:10:12.496Z,100.00
2017-11-15T11:11:43.853Z,100.00
2017-11-15T11:13:06.839Z,100.00
2017-11-15T11:14:37.982Z,100.00
2017-11-15T11:16:01.369Z,100.00
2017-11-15T11:17:28.776Z,100.00
2017-11-15T11:19:00.107Z,100.00
2017-11-15T11:20:27.496Z,100.00
2017-11-15T11:21:50.893Z,100.00
2017-11-15T11:23:18.259Z,100.00
2017-11-15T11:24:45.638Z,100.00
2017-11-15T11:26:16.884Z,100.00
2017-11-15T11:27:44.274Z,100.00
2017-11-15T11:29:07.517Z,100.00
2017-11-15T11:30:38.726Z,100.00
2017-11-15T11:32:01.960Z,100.00
2017-11-15T11:33:29.322Z,100.00
2017-11-15T11:34:56.732Z,100.00
2017-11-15T11:36:23.948Z,100.00
2017-11-15T11:37:51.301Z,100.00
2017-11-15T11:39:18.734Z,100.00
2017-11-15T11:40:49.817Z,100.00
2017-11-15T11:42:17.048Z,100.00
2017-11-15T11:43:44.547Z,100.00
2017-11-15T11:45:07.640Z,100.00
2017-11-15T11:46:39.045Z,100.00
2017-11-15T11:48:06.297Z,100.00
2017-11-15T11:49:29.763Z,100.00
2017-11-15T11:51:01.006Z,100.00
2017-11-15T11:52:24.452Z,100.00
2017-11-15T11:53:55.858Z,100.00
2017-11-15T11:55:23.312Z,100.00
2017-11-15T11:56:46.675Z,100.00
2017-11-15T11:58:13.993Z,100.00
2017-11-15T11:59:41.238Z,100.00
2017-11-15T12:01:12.194Z,100.00
2017-11-15T12:02:39.348Z,100.00
2017-11-15T12:04:02.553Z,100.00
2017-11-15T12:05:33.911Z,100.00
2017-11-15T12:07:01.171Z,100.00
2017-11-15T12:08:24.588Z,100.00
2017-11-15T12:09:51.915Z,100.00
2017-11-15T12:11:19.078Z,100.00
2017-11-15T12:12:46.504Z,100.00
2017-11-15T12:14:13.935Z,100.00
2017-11-15T12:15:41.274Z,100.00
2017-11-15T12:17:08.386Z,100.00
2017-11-15T12:18:35.590Z,100.00
2017-11-15T12:20:03.020Z,100.00
2017-11-15T12:21:30.132Z,100.00
2017-11-15T12:22:57.586Z,100.00
2017-11-15T12:24:24.811Z,100.00
2017-11-15T12:25:51.879Z,100.00
2017-11-15T12:27:18.981Z,100.00
2017-11-15T12:28:46.566Z,100.00
2017-11-15T12:30:13.725Z,100.00
2017-11-15T12:31:44.768Z,100.00
2017-11-15T12:33:08.180Z,100.00
2017-11-15T12:34:35.745Z,100.00
2017-11-15T12:36:03.132Z,100.00
2017-11-15T12:37:30.380Z,100.00
2017-11-15T12:38:57.639Z,100.00
2017-11-15T12:40:24.917Z,100.00
2017-11-15T12:41:52.305Z,100.00
2017-11-15T12:43:19.562Z,100.00
2017-11-15T12:44:50.907Z,100.00
2017-11-15T12:46:14.234Z,100.00
2017-11-15T12:47:41.501Z,100.00
2017-11-15T12:49:08.822Z,100.00
2017-11-15T12:50:39.987Z,100.00
2017-11-15T12:52:03.398Z,100.00
2017-11-15T12:53:34.802Z,100.00
2017-11-15T12:54:58.266Z,100.00
2017-11-15T12:56:25.529Z,100.00
2017-11-15T12:57:52.975Z,100.00
2017-11-15T12:59:20.362Z,100.00
2017-11-15T13:00:51.870Z,100.00
2017-11-15T13:02:15.067Z,100.00
2017-11-15T13:03:42.410Z,100.00
2017-11-15T13:05:09.646Z,100.00
2017-11-15T13:13:47.462Z,100.00
2017-11-15T13:15:10.563Z,100.00
2017-11-15T13:16:37.909Z,100.00
2017-11-15T13:18:05.366Z,99.45
2017-11-15T13:19:32.616Z,99.39
2017-11-15T13:20:59.923Z,99.36
2017-11-15T13:22:27.167Z,99.45
2017-11-15T13:23:54.562Z,99.55
2017-11-15T13:25:21.931Z,99.66
2017-11-15T13:26:49.096Z,99.72
2017-11-15T13:28:20.600Z,99.65
2017-11-15T13:29:43.870Z,99.77
2017-11-15T13:31:11.213Z,99.70
2017-11-15T13:32:38.485Z,99.83
2017-11-15T13:34:05.785Z,99.74
2017-11-15T13:35:37.352Z,99.85
2017-11-15T13:37:00.651Z,99.89
2017-11-15T13:38:31.857Z,99.81
2017-11-15T13:39:55.160Z,99.80
2017-11-15T13:41:22.575Z,100.00
2017-11-15T13:42:49.621Z,100.00
2017-11-15T13:44:16.998Z,100.00
2017-11-15T13:45:48.461Z,100.00
2017-11-15T13:47:11.804Z,100.00
2017-11-15T13:48:39.008Z,100.00
2017-11-15T13:50:06.365Z,100.00
2017-11-15T13:51:33.886Z,99.94
2017-11-15T13:53:01.144Z,99.81
2017-11-15T13:54:28.599Z,99.78
2017-11-15T13:55:55.948Z,99.71
2017-11-15T13:57:27.455Z,99.65
2017-11-15T13:58:50.821Z,99.62
2017-11-15T14:00:22.257Z,99.42
2017-11-15T14:01:45.539Z,99.48
2017-11-15T14:03:12.914Z,99.49
2017-11-15T14:04:40.408Z,99.54
2017-11-15T14:06:07.594Z,99.44
2017-11-15T14:07:35.025Z,99.45
2017-11-15T14:09:02.407Z,99.37
2017-11-15T14:10:33.912Z,99.36
2017-11-15T14:12:01.250Z,99.34
2017-11-15T14:13:24.419Z,99.34
2017-11-15T14:14:51.843Z,99.36
2017-11-15T14:16:18.809Z,99.39
2017-11-15T14:17:46.080Z,99.40
2017-11-15T14:19:13.671Z,99.41
2017-11-15T14:20:41.060Z,99.38
2017-11-15T14:22:08.418Z,99.39
2017-11-15T14:23:35.680Z,99.33
2017-11-15T14:25:02.962Z,99.27
2017-11-15T14:26:30.095Z,99.25
2017-11-15T14:27:57.470Z,99.30
2017-11-15T14:29:24.799Z,99.28
2017-11-15T14:30:52.064Z,99.24
2017-11-15T14:32:19.296Z,99.22
2017-11-15T14:33:46.600Z,99.24
2017-11-15T14:35:13.984Z,99.07
2017-11-15T14:36:41.565Z,99.05
2017-11-15T14:38:12.979Z,99.10
2017-11-15T14:39:40.213Z,99.06
2017-11-15T14:41:03.301Z,99.03
2017-11-15T14:42:30.703Z,99.02
2017-11-15T14:43:57.867Z,98.94
2017-11-15T14:45:25.262Z,98.86
2017-11-15T14:46:52.458Z,98.90
2017-11-15T14:48:19.686Z,98.91
2017-11-15T14:49:46.940Z,98.95
2017-11-15T14:51:14.331Z,99.01
2017-11-15T14:52:45.834Z,99.04
2017-11-15T14:54:09.148Z,99.02
2017-11-15T14:55:40.578Z,98.99
2017-11-15T14:57:03.929Z,98.95
2017-11-15T14:58:31.201Z,98.89
2017-11-15T14:59:58.390Z,98.87
2017-11-15T15:01:29.708Z,98.86
2017-11-15T15:02:53.053Z,98.90
2017-11-15T15:04:20.272Z,98.88
2017-11-15T15:05:51.419Z,99.00
2017-11-15T15:07:18.874Z,98.98
2017-11-15T15:08:42.197Z,98.87
2017-11-15T15:10:09.651Z,98.62
2017-11-15T15:11:36.873Z,98.60
2017-11-15T15:13:04.129Z,98.60
2017-11-15T15:14:31.579Z,98.64
2017-11-15T15:16:02.883Z,98.86
2017-11-15T15:17:26.312Z,98.96
2017-11-15T15:18:57.636Z,99.10
2017-11-15T15:20:24.888Z,99.21
2017-11-15T15:21:48.443Z,99.34
2017-11-15T15:23:19.459Z,99.36
2017-11-15T15:24:46.860Z,99.43
2017-11-15T15:26:10.322Z,99.53
2017-11-15T15:27:37.596Z,99.57
2017-11-15T15:29:04.963Z,99.53
2017-11-15T15:30:32.304Z,99.49
2017-11-15T15:31:59.755Z,99.52
2017-11-15T15:33:27.183Z,99.55
2017-11-15T15:34:58.362Z,99.51
2017-11-15T15:36:21.588Z,99.43
2017-11-15T15:37:49.143Z,99.30
2017-11-15T15:39:16.267Z,99.13
2017-11-15T15:40:43.481Z,99.01
2017-11-15T15:42:10.783Z,99.06
2017-11-15T15:43:42.225Z,99.09
2017-11-15T15:45:09.725Z,99.05
2017-11-15T15:46:32.928Z,99.06
2017-11-15T15:48:00.160Z,98.87
2017-11-15T15:49:27.538Z,98.66
2017-11-15T15:50:58.898Z,98.67
2017-11-15T15:52:26.007Z,98.55
2017-11-15T15:53:49.002Z,98.64
2017-11-15T15:55:16.290Z,98.72
2017-11-15T15:56:43.705Z,98.63
2017-11-15T15:58:11.024Z,98.74
2017-11-15T15:59:38.499Z,98.67
2017-11-15T16:01:09.813Z,98.87
2017-11-15T16:02:33.238Z,98.77
2017-11-15T16:04:00.447Z,98.84
2017-11-15T16:05:31.725Z,98.78
2017-11-15T16:06:55.031Z,98.86
2017-11-15T16:08:22.334Z,98.80
2017-11-15T16:09:49.643Z,98.77
2017-11-15T16:11:17.024Z,98.80
2017-11-15T16:12:44.416Z,98.81
2017-11-15T16:14:11.786Z,98.74
2017-11-15T16:15:39.125Z,98.68
2017-11-15T16:17:06.346Z,98.56
2017-11-15T16:18:33.816Z,98.40
2017-11-15T16:20:01.288Z,98.47
2017-11-15T16:21:28.626Z,98.40
2017-11-15T16:22:55.912Z,98.33
2017-11-15T16:24:27.327Z,98.28
2017-11-15T16:25:50.632Z,98.28
2017-11-15T16:27:21.987Z,98.22
2017-11-15T16:28:45.177Z,98.26
2017-11-15T16:30:12.666Z,98.46
2017-11-15T16:31:39.859Z,98.48
2017-11-15T16:33:07.230Z,98.57
2017-11-15T16:34:38.664Z,98.54
2017-11-15T16:36:01.915Z,98.43
2017-11-15T16:37:29.332Z,98.25
2017-11-15T16:38:56.626Z,98.30
2017-11-15T16:40:23.874Z,98.25
2017-11-15T16:41:51.205Z,98.24
2017-11-15T16:43:18.647Z,98.23
2017-11-15T16:44:46.026Z,98.21
2017-11-15T16:46:13.581Z,97.98
2017-11-15T16:47:40.876Z,98.02
2017-11-15T16:49:08.255Z,98.17
2017-11-15T16:50:35.710Z,98.32
2017-11-15T16:52:02.882Z,98.59
2017-11-15T16:53:30.249Z,98.91
2017-11-15T16:54:57.502Z,99.07
2017-11-15T16:56:24.806Z,99.18
2017-11-15T16:57:52.144Z,99.24
2017-11-15T16:59:19.329Z,99.26
2017-11-15T17:00:46.547Z,99.27
2017-11-15T17:02:13.901Z,99.26
2017-11-15T17:03:41.188Z,99.22
2017-11-15T17:05:12.695Z,99.11
2017-11-15T17:06:35.930Z,99.09
2017-11-15T17:08:03.405Z,99.15
2017-11-15T17:09:30.547Z,99.15
2017-11-15T17:10:57.788Z,99.13
2017-11-15T17:12:25.091Z,99.14
2017-11-15T17:13:56.440Z,99.09
2017-11-15T17:15:19.542Z,99.01
2017-11-15T17:16:46.983Z,99.07
2017-11-15T17:18:14.320Z,98.91
2017-11-15T17:19:41.596Z,98.84
2017-11-15T17:21:12.914Z,98.84
2017-11-15T17:22:36.418Z,98.84
2017-11-15T17:24:03.649Z,98.75
2017-11-15T17:25:30.877Z,98.76
2017-11-15T17:27:02.051Z,98.75
2017-11-15T17:28:25.356Z,98.83
2017-11-15T17:29:52.656Z,98.65
2017-11-15T17:31:19.773Z,98.61
2017-11-15T17:32:47.120Z,98.61
2017-11-15T17:34:14.491Z,98.52
2017-11-15T17:35:41.778Z,98.47
2017-11-15T17:37:09.141Z,98.47
2017-11-15T17:38:36.626Z,98.45
2017-11-15T17:40:08.186Z,98.45
2017-11-15T17:41:35.344Z,98.55
2017-11-15T17:42:58.820Z,98.55
2017-11-15T17:44:26.142Z,98.56
2017-11-15T17:45:53.534Z,98.61
2017-11-15T17:47:20.790Z,98.83
2017-11-15T17:48:48.021Z,98.72
2017-11-15T17:50:15.327Z,99.22
2017-11-15T17:51:42.782Z,99.19
2017-11-15T17:53:10.018Z,99.40
2017-11-15T17:54:37.460Z,99.57
2017-11-15T17:56:04.767Z,99.56
2017-11-15T17:57:36.093Z,99.20
2017-11-15T17:59:03.411Z,99.34
2017-11-15T18:00:26.913Z,99.58
2017-11-15T18:01:54.280Z,99.94
2017-11-15T18:03:21.656Z,100.00
2017-11-15T18:04:48.715Z,100.00
2017-11-15T18:06:16.266Z,100.00
2017-11-15T18:07:43.422Z,100.00
2017-11-15T18:09:10.755Z,100.00
2017-11-15T18:10:38.141Z,100.00
2017-11-15T18:12:05.566Z,100.00
2017-11-15T18:13:32.868Z,100.00
2017-11-15T18:15:04.220Z,100.00
2017-11-15T18:16:27.661Z,100.00
2017-11-15T18:17:59.060Z,99.92
2017-11-15T18:19:22.401Z,100.00
2017-11-15T18:20:49.601Z,100.00
2017-11-15T18:22:16.989Z,99.95
2017-11-15T18:23:44.281Z,99.41
2017-11-15T18:25:11.657Z,99.30
2017-11-15T18:26:39.107Z,99.11
2017-11-15T18:28:06.511Z,98.89
2017-11-15T18:29:33.877Z,98.67
2017-11-15T18:31:05.271Z,97.97
2017-11-15T18:32:28.424Z,97.73
2017-11-15T18:33:55.718Z,97.71
2017-11-15T18:35:23.007Z,97.94
2017-11-15T18:36:54.348Z,97.72
2017-11-15T18:38:17.820Z,97.11
2017-11-15T18:39:45.139Z,97.34
2017-11-15T18:41:16.722Z,97.51
2017-11-15T18:42:43.873Z,97.39
2017-11-15T18:44:07.133Z,97.12
2017-11-15T18:45:34.544Z,97.25
2017-11-15T18:47:01.704Z,97.78
2017-11-15T18:48:29.005Z,97.93
2017-11-15T18:49:56.380Z,97.96
2017-11-15T18:51:27.685Z,97.94
2017-11-15T18:52:50.951Z,97.86
2017-11-15T18:54:18.397Z,97.80
2017-11-15T18:55:45.772Z,97.62
2017-11-15T18:57:13.243Z,97.45
2017-11-15T18:58:40.644Z,97.36
2017-11-15T19:00:08.212Z,97.21
2017-11-15T19:01:39.665Z,97.07
2017-11-15T19:03:06.733Z,97.04
2017-11-15T19:04:34.231Z,96.98
2017-11-15T19:05:57.501Z,96.86
2017-11-15T19:07:24.861Z,96.66
2017-11-15T19:08:52.057Z,96.54
2017-11-15T19:10:19.329Z,96.33
2017-11-15T19:11:46.677Z,96.23
2017-11-15T19:13:14.179Z,96.24
2017-11-15T19:14:45.466Z,96.22
2017-11-15T19:16:08.929Z,96.17
2017-11-15T19:17:36.178Z,96.08
2017-11-15T19:19:03.606Z,95.16
2017-11-15T19:20:30.992Z,95.69
2017-11-15T19:21:58.402Z,95.89
2017-11-15T19:23:29.597Z,95.81
2017-11-15T19:24:52.876Z,95.35
2017-11-15T19:26:20.128Z,95.03
2017-11-15T19:27:47.429Z,95.08
2017-11-15T19:29:14.708Z,94.12
2017-11-15T19:30:46.229Z,94.18
2017-11-15T19:32:13.377Z,94.47
2017-11-15T19:33:36.765Z,94.43
2017-11-15T19:35:04.195Z,94.05
2017-11-15T19:36:31.572Z,93.71
2017-11-15T19:38:02.978Z,93.32
2017-11-15T19:39:30.164Z,93.55
2017-11-15T19:40:53.339Z,94.19
2017-11-15T19:42:20.611Z,94.43
2017-11-15T19:43:47.934Z,94.03
2017-11-15T19:45:15.375Z,93.61
2017-11-15T19:46:42.728Z,93.80
2017-11-15T19:48:10.110Z,93.15
2017-11-15T19:49:37.563Z,92.80
2017-11-15T19:51:04.877Z,92.56
2017-11-15T19:52:32.155Z,93.11
2017-11-15T19:54:03.487Z,92.34
2017-11-15T19:55:26.693Z,91.88
2017-11-15T19:56:53.992Z,91.73
2017-11-15T19:58:21.267Z,91.81
2017-11-15T19:59:52.611Z,92.33
2017-11-15T20:01:15.852Z,92.18
2017-11-15T20:02:43.247Z,91.69
2017-11-15T20:04:10.640Z,91.50
2017-11-15T20:05:42.001Z,91.63
2017-11-15T20:07:09.355Z,91.72
2017-11-15T20:08:32.596Z,92.43
2017-11-15T20:10:03.817Z,93.17
2017-11-15T20:11:27.229Z,93.90
2017-11-15T20:12:58.464Z,94.05
2017-11-15T20:14:25.893Z,94.98
2017-11-15T20:15:49.219Z,95.39
2017-11-15T20:17:16.566Z,96.01
2017-11-15T20:18:47.927Z,96.24
2017-11-15T20:20:11.140Z,96.37
2017-11-15T20:21:38.451Z,95.88
2017-11-15T20:23:05.726Z,94.95
2017-11-15T20:24:32.998Z,94.69
2017-11-15T20:26:00.303Z,94.89
2017-11-15T20:27:31.684Z,95.15
2017-11-15T20:28:54.876Z,95.99
2017-11-15T20:30:26.171Z,96.67
2017-11-15T20:31:49.107Z,96.85
2017-11-15T20:33:16.532Z,96.24
2017-11-15T20:34:43.854Z,96.51
2017-11-15T20:36:11.177Z,96.93
2017-11-15T20:37:38.563Z,96.81
2017-11-15T20:39:05.885Z,97.00
2017-11-15T20:40:37.059Z,97.47
2017-11-15T20:42:00.407Z,97.75
2017-11-15T20:43:27.784Z,97.83
2017-11-15T20:44:55.225Z,97.73
2017-11-15T20:46:22.537Z,97.53
2017-11-15T20:47:49.681Z,96.54
2017-11-15T20:49:21.033Z,96.42
2017-11-15T20:50:48.344Z,96.81
2017-11-15T20:52:15.739Z,96.07
2017-11-15T20:53:43.122Z,96.16
2017-11-15T20:55:06.238Z,96.42
2017-11-15T20:56:33.693Z,96.27
2017-11-15T20:58:05.032Z,96.43
2017-11-15T20:59:28.241Z,96.48
2017-11-15T21:00:55.757Z,96.51
2017-11-15T21:02:23.031Z,96.52
2017-11-15T21:03:50.132Z,96.42
2017-11-15T21:05:17.457Z,96.69
2017-11-15T21:06:44.867Z,96.69
2017-11-15T21:08:12.199Z,96.42
2017-11-15T21:09:39.686Z,96.23
2017-11-15T21:11:07.107Z,96.35
2017-11-15T21:12:38.194Z,96.65
2017-11-15T21:14:01.551Z,96.81
2017-11-15T21:15:29.006Z,96.84
2017-11-15T21:16:56.181Z,96.85
2017-11-15T21:18:23.391Z,96.97
2017-11-15T21:19:50.856Z,96.94
2017-11-15T21:21:22.128Z,96.97
2017-11-15T21:22:45.524Z,96.76
2017-11-15T21:24:12.773Z,96.52
2017-11-15T21:25:39.985Z,96.71
2017-11-15T21:27:07.198Z,96.91
2017-11-15T21:28:34.437Z,97.23
2017-11-15T21:30:01.740Z,97.29
2017-11-15T21:31:28.850Z,97.19
2017-11-15T21:32:55.826Z,97.47
2017-11-15T21:34:23.149Z,97.75
2017-11-15T21:35:50.563Z,97.97
2017-11-15T21:37:17.786Z,97.99
2017-11-15T21:38:44.998Z,97.75
2017-11-15T21:40:12.372Z,97.88
2017-11-15T21:41:39.755Z,97.89
2017-11-15T21:43:06.974Z,97.95
2017-11-15T21:44:38.238Z,98.16
2017-11-15T21:46:01.667Z,98.19
2017-11-15T21:47:29.029Z,98.11